Bolton, United Kingdom
Current Conditions -  °F | °C
As of 3:20 AM on Saturday 25 Oct 2014 (Local Time) from EGCC Reporting Station
Clear Clear  
Wind Chill: 40°   Ceiling: Unl
Heat Index: 45°   Visibility: 6mi
Dew Point: 45°   Wind: 8mph
Humidity: 100%   Direction: 190°S
Pressure: 29.91"   Gusts: NA
Location:  53.58°N, 2.43°W
Report Text: EGCC 250220Z 19007KT CAVOK 07/07 Q1013 NOSIG
Loading
Personal Weather Stations






























Interactive Weather Map
Tropical Storm Tracking
New forecast layout! Learn more

10-Day Weather Forecast

Advertisements
Track Severe Weather on mobile